Time;durP1;ratioP1;P1;durP2;ratioP2;P2;SDS_P1;SDS_P2;PMS_P1;PMS_P2;Temp;Humidity;BMP_temperature;BMP_pressure;BME280_temperature;BME280_humidity;BME280_pressure;Samples;Min_cycle;Max_cycle;Signal;HPM_P1;HPM_P2
2022/12/24 00:00:01;;;;;;;26.90;15.48;;;7.10;99.90;;;;;;5077686;28;20048;-88
2022/12/24 00:02:27;;;;;;;28.52;16.05;;;7.40;99.90;;;;;;5095583;28;20052;-88
2022/12/24 00:04:53;;;;;;;26.63;16.08;;;7.00;99.90;;;;;;5077728;28;20098;-88
2022/12/24 00:07:18;;;;;;;26.42;15.38;;;7.00;99.90;;;;;;5095419;28;20052;-87
2022/12/24 00:09:44;;;;;;;26.95;15.23;;;7.80;99.90;;;;;;5076839;28;20461;-87
2022/12/24 00:12:10;;;;;;;27.77;15.38;;;7.40;99.90;;;;;;5106601;28;20053;-87
2022/12/24 00:14:36;;;;;;;26.15;15.10;;;7.70;99.90;;;;;;5092428;28;20040;-87
2022/12/24 00:17:01;;;;;;;24.10;14.70;;;7.00;99.90;;;;;;5114204;27;20051;-88
2022/12/24 00:19:27;;;;;;;28.25;16.27;;;7.10;99.90;;;;;;5095630;28;20040;-87
2022/12/24 00:21:53;;;;;;;27.95;15.77;;;7.00;99.90;;;;;;5096899;28;20063;-88
2022/12/24 00:24:18;;;;;;;26.95;15.48;;;7.00;99.90;;;;;;5097061;28;20052;-88
2022/12/24 00:26:44;;;;;;;25.92;16.02;;;7.40;99.90;;;;;;5096687;28;20048;-87
2022/12/24 00:29:10;;;;;;;26.85;15.60;;;6.90;99.90;;;;;;5103652;28;20056;-87
2022/12/24 00:31:36;;;;;;;24.65;15.30;;;7.40;99.90;;;;;;5095025;28;20044;-88
2022/12/24 00:34:02;;;;;;;27.67;16.20;;;7.00;99.90;;;;;;5086647;27;20054;-88
2022/12/24 00:36:27;;;;;;;28.58;16.83;;;7.00;99.90;;;;;;5084028;28;20048;-88
2022/12/24 00:38:53;;;;;;;26.02;15.52;;;7.00;99.90;;;;;;5082829;28;20058;-87
2022/12/24 00:41:24;;;;;;;25.95;15.77;;;7.00;99.90;;;;;;5115763;28;20058;-87
2022/12/24 00:43:56;;;;;;;25.88;15.60;;;7.00;99.90;;;;;;5098872;27;20060;-87
2022/12/24 00:46:23;;;;;;;27.50;16.17;;;8.20;99.90;;;;;;5119916;27;20074;-88
2022/12/24 00:48:49;;;;;;;26.15;16.65;;;6.90;99.90;;;;;;5101550;27;20779;-89
2022/12/24 00:51:15;;;;;;;25.85;15.35;;;7.40;99.90;;;;;;5084957;28;20070;-88
2022/12/24 00:53:41;;;;;;;25.42;15.60;;;7.00;99.90;;;;;;5097470;28;20043;-88
2022/12/24 00:56:07;;;;;;;25.23;15.93;;;7.00;99.90;;;;;;5091984;27;20039;-88
2022/12/24 00:58:33;;;;;;;25.33;15.40;;;7.00;99.90;;;;;;5107055;28;20048;-87
2022/12/24 01:00:59;;;;;;;26.70;15.90;;;7.00;99.90;;;;;;5079431;28;20046;-87
2022/12/24 01:03:34;;;;;;;26.33;15.80;;;6.90;99.90;;;;;;5100781;27;20062;-88
2022/12/24 01:06:04;;;;;;;26.48;15.45;;;6.90;99.90;;;;;;5099934;27;20047;-88
2022/12/24 01:08:30;;;;;;;25.65;16.38;;;6.90;99.90;;;;;;5100356;27;20059;-87
2022/12/24 01:10:56;;;;;;;26.95;15.95;;;6.90;99.90;;;;;;5099648;27;20134;-88
2022/12/24 01:13:22;;;;;;;27.83;15.80;;;6.90;99.90;;;;;;5108368;27;20169;-87
2022/12/24 01:15:48;;;;;;;26.60;16.10;;;6.90;99.90;;;;;;5078917;28;20044;-87
2022/12/24 01:18:14;;;;;;;27.35;15.60;;;6.90;99.90;;;;;;5062603;28;20058;-87
2022/12/24 01:20:40;;;;;;;24.23;15.52;;;6.90;99.90;;;;;;5081511;28;20060;-88
2022/12/24 01:23:06;;;;;;;24.63;15.43;;;6.90;99.90;;;;;;5068561;27;20043;-88
2022/12/24 01:25:32;;;;;;;25.10;16.20;;;6.90;99.90;;;;;;5097628;27;20058;-88
2022/12/24 01:27:58;;;;;;;26.42;16.35;;;6.90;99.90;;;;;;5098675;27;20055;-88
2022/12/24 01:30:23;;;;;;;26.15;16.42;;;6.80;99.90;;;;;;5098861;28;20404;-88
2022/12/24 01:32:49;;;;;;;28.45;17.08;;;6.80;99.90;;;;;;5111081;28;20496;-88
2022/12/24 01:35:15;;;;;;;27.52;16.35;;;6.90;99.90;;;;;;5094377;28;20040;-87
2022/12/24 01:37:41;;;;;;;26.48;16.05;;;6.90;99.90;;;;;;5097342;28;20066;-88
2022/12/24 01:45:47;;;;;;;29.88;17.23;;;6.90;99.90;;;;;;5095679;28;20099;-88
2022/12/24 01:48:47;;;;;;;28.80;16.83;;;6.90;99.90;;;;;;5060705;28;20129;-88
2022/12/24 01:51:32;;;;;;;29.15;16.85;;;6.80;99.90;;;;;;5061714;28;20130;-87
2022/12/24 01:54:21;;;;;;;28.75;17.48;;;6.80;99.90;;;;;;5077391;28;20044;-88
2022/12/24 01:56:52;;;;;;;27.38;16.83;;;6.80;99.90;;;;;;5052180;28;20044;-88
2022/12/24 01:59:19;;;;;;;31.00;17.58;;;6.80;99.90;;;;;;5070092;28;20086;-87
2022/12/24 02:01:48;;;;;;;28.40;17.25;;;6.80;99.90;;;;;;5077234;28;20051;-88
2022/12/24 02:04:36;;;;;;;31.02;17.60;;;6.90;99.90;;;;;;5076489;28;20483;-88
2022/12/24 02:07:02;;;;;;;29.67;18.23;;;6.80;99.90;;;;;;5092722;28;20056;-88
2022/12/24 02:09:28;;;;;;;30.75;18.20;;;6.90;99.90;;;;;;5076604;28;20139;-87
2022/12/24 02:11:53;;;;;;;32.58;17.77;;;7.10;99.90;;;;;;5076980;28;20059;-88
2022/12/24 02:14:20;;;;;;;36.78;19.38;;;6.80;99.90;;;;;;5053203;28;20097;-88
2022/12/24 02:17:12;;;;;;;32.95;18.27;;;7.00;99.90;;;;;;5075073;28;20048;-87
2022/12/24 02:19:43;;;;;;;33.10;17.98;;;6.80;99.90;;;;;;5077009;28;20150;-87
2022/12/24 02:22:42;;;;;;;33.50;18.45;;;6.80;99.90;;;;;;5056058;28;20049;-87
2022/12/24 02:25:26;;;;;;;35.67;19.17;;;6.80;99.90;;;;;;5085382;28;20040;-87
2022/12/24 02:27:59;;;;;;;28.58;16.70;;;6.80;99.90;;;;;;5076244;28;20056;-87
2022/12/24 02:30:47;;;;;;;30.10;16.83;;;6.90;99.90;;;;;;5092768;28;20054;-87
2022/12/24 02:33:16;;;;;;;27.83;16.65;;;6.80;99.90;;;;;;5071509;28;20052;-87
2022/12/24 02:36:00;;;;;;;28.35;16.58;;;7.70;99.90;;;;;;5090274;27;20496;-88
2022/12/24 02:39:00;;;;;;;28.77;16.80;;;6.80;99.90;;;;;;5060466;28;20044;-89
2022/12/24 02:42:04;;;;;;;29.52;16.80;;;6.90;99.90;;;;;;5101399;28;20518;-88
2022/12/24 02:44:18;;;;;;;29.40;17.38;;;7.10;99.90;;;;;;5115143;28;20051;-88
2022/12/24 02:46:45;;;;;;;28.23;15.82;;;7.30;99.90;;;;;;5077348;28;20060;-88
2022/12/24 02:49:12;;;;;;;27.88;16.40;;;8.00;99.90;;;;;;5071208;27;20043;-88
2022/12/24 02:51:38;;;;;;;29.80;17.20;;;6.90;99.90;;;;;;5101729;27;20054;-88
2022/12/24 02:54:04;;;;;;;29.02;17.02;;;7.00;99.90;;;;;;5098332;27;20055;-89
2022/12/24 02:56:51;;;;;;;33.47;18.23;;;6.90;99.90;;;;;;5099535;27;20058;-89
2022/12/24 02:59:35;;;;;;;31.50;17.40;;;7.00;99.90;;;;;;5113107;28;20394;-88
2022/12/24 03:02:23;;;;;;;31.67;18.70;;;7.00;99.90;;;;;;5116881;28;20059;-88
2022/12/24 03:04:58;;;;;;;28.60;17.25;;;7.00;99.90;;;;;;5087560;28;20059;-88
2022/12/24 03:07:39;;;;;;;30.10;17.42;;;7.00;99.90;;;;;;5097657;28;20055;-89
2022/12/24 03:10:44;;;;;;;33.58;18.60;;;7.10;99.90;;;;;;5114819;27;20452;-88
2022/12/24 03:13:14;;;;;;;33.58;17.90;;;7.10;99.90;;;;;;5058946;28;20068;-88
2022/12/24 03:15:41;;;;;;;33.42;18.88;;;8.10;99.90;;;;;;5097872;28;20039;-88
2022/12/24 03:18:08;;;;;;;29.83;17.23;;;6.20;99.90;;;;;;5114516;28;20055;-88
2022/12/24 03:20:53;;;;;;;31.85;17.90;;;7.20;99.90;;;;;;5089433;28;20071;-88
2022/12/24 03:23:19;;;;;;;29.70;17.85;;;7.20;99.90;;;;;;5095753;28;20054;-88
2022/12/24 03:25:45;;;;;;;30.75;17.10;;;7.30;99.90;;;;;;5097679;28;20043;-88
2022/12/24 03:28:16;;;;;;;27.10;16.45;;;7.40;99.90;;;;;;5090320;28;20056;-88
2022/12/24 03:30:44;;;;;;;32.70;18.85;;;8.30;99.90;;;;;;5080064;28;20047;-88
2022/12/24 03:33:10;;;;;;;30.90;17.05;;;7.50;99.90;;;;;;5097691;28;20135;-86
2022/12/24 03:35:36;;;;;;;30.83;17.40;;;8.40;99.90;;;;;;5069024;28;20050;-88
2022/12/24 03:38:02;;;;;;;26.17;15.15;;;8.10;99.90;;;;;;5070247;28;20131;-88
2022/12/24 03:40:28;;;;;;;24.58;14.80;;;7.60;99.90;;;;;;5065848;28;20059;-88
2022/12/24 03:42:53;;;;;;;28.33;14.75;;;7.70;99.90;;;;;;5065708;28;20064;-88
2022/12/24 03:45:19;;;;;;;24.95;13.80;;;9.00;99.90;;;;;;5079859;28;20044;-88
2022/12/24 03:47:45;;;;;;;22.67;12.02;;;7.80;99.90;;;;;;5096385;28;20515;-88
2022/12/24 03:50:10;;;;;;;21.40;11.88;;;7.90;99.90;;;;;;5096933;28;20048;-88
2022/12/24 03:52:36;;;;;;;19.30;11.32;;;8.00;99.90;;;;;;5096154;28;20063;-87
2022/12/24 03:55:02;;;;;;;17.73;9.57;;;8.10;99.90;;;;;;5078199;28;20403;-88
2022/12/24 03:57:28;;;;;;;18.35;9.88;;;8.20;99.90;;;;;;5075838;28;20118;-88
2022/12/24 03:59:53;;;;;;;24.13;9.57;;;8.30;99.90;;;;;;5042724;28;20412;-88
2022/12/24 04:02:19;;;;;;;19.60;10.13;;;8.30;99.90;;;;;;5060246;28;20132;-87
2022/12/24 04:04:45;;;;;;;22.13;9.43;;;8.30;99.90;;;;;;5042797;28;20044;-88
2022/12/24 04:07:10;;;;;;;20.90;9.05;;;8.30;99.90;;;;;;5042800;28;20067;-88
2022/12/24 04:09:37;;;;;;;19.13;9.32;;;8.40;99.90;;;;;;5042229;28;20051;-88
2022/12/24 04:12:02;;;;;;;22.13;9.27;;;8.30;99.90;;;;;;5042399;28;20546;-88
2022/12/24 04:14:28;;;;;;;17.67;8.93;;;8.30;99.90;;;;;;5057584;28;20048;-87
2022/12/24 04:16:54;;;;;;;20.38;9.18;;;8.40;99.90;;;;;;5079804;28;20416;-88
2022/12/24 04:19:19;;;;;;;20.98;9.73;;;8.30;99.90;;;;;;5078163;28;20048;-88
2022/12/24 04:21:45;;;;;;;22.60;9.80;;;8.40;99.90;;;;;;5080324;28;20058;-87
2022/12/24 04:24:11;;;;;;;19.83;9.30;;;8.40;99.90;;;;;;5075630;28;20049;-88
2022/12/24 04:26:37;;;;;;;19.92;8.98;;;8.40;99.90;;;;;;5061921;28;20519;-88
2022/12/24 04:29:02;;;;;;;22.60;9.57;;;8.40;99.90;;;;;;5096692;28;20448;-88
2022/12/24 04:31:28;;;;;;;25.15;9.60;;;8.50;99.90;;;;;;5075976;28;20052;-88
2022/12/24 04:33:54;;;;;;;29.63;9.30;;;9.70;99.90;;;;;;5076233;28;20044;-88
2022/12/24 04:36:19;;;;;;;27.40;9.10;;;8.60;99.90;;;;;;5081691;28;20403;-88
2022/12/24 04:38:47;;;;;;;18.77;8.43;;;8.60;99.90;;;;;;5089257;28;20428;-88
2022/12/24 04:41:15;;;;;;;29.17;9.55;;;8.60;99.90;;;;;;5072685;28;20431;-87
2022/12/24 04:43:41;;;;;;;30.30;8.85;;;8.60;99.90;;;;;;5079092;28;20083;-88
2022/12/24 04:46:17;;;;;;;24.33;8.20;;;8.70;99.90;;;;;;5061826;28;20110;-88
2022/12/24 04:48:47;;;;;;;23.63;7.60;;;8.70;99.90;;;;;;5079072;28;20059;-88
2022/12/24 04:51:14;;;;;;;35.53;8.13;;;8.70;99.90;;;;;;5082216;28;20047;-88
2022/12/24 04:53:42;;;;;;;31.65;6.55;;;8.60;99.90;;;;;;5057773;28;20080;-88
2022/12/24 04:56:19;;;;;;;31.83;5.93;;;8.60;99.90;;;;;;5064829;28;20043;-88
2022/12/24 04:58:45;;;;;;;33.70;6.43;;;8.60;99.90;;;;;;5060929;28;20053;-88
2022/12/24 05:01:23;;;;;;;42.08;7.95;;;8.60;99.90;;;;;;5075563;28;20518;-88
2022/12/24 05:03:50;;;;;;;36.45;5.50;;;8.60;99.90;;;;;;5058147;28;20869;-88
2022/12/24 05:06:19;;;;;;;32.40;5.18;;;8.60;99.90;;;;;;5042024;28;20056;-88
2022/12/24 05:08:45;;;;;;;26.25;5.60;;;9.40;99.90;;;;;;5071686;28;20530;-88
2022/12/24 05:11:13;;;;;;;28.45;4.90;;;8.70;99.90;;;;;;5096699;28;20051;-87
2022/12/24 05:13:40;;;;;;;38.33;5.75;;;8.60;99.90;;;;;;5076552;28;20516;-88
2022/12/24 05:16:06;;;;;;;36.10;6.78;;;8.70;99.90;;;;;;5080626;28;20192;-88
2022/12/24 05:18:32;;;;;;;35.70;5.50;;;8.60;99.90;;;;;;5068966;28;20053;-88
2022/12/24 05:20:57;;;;;;;38.38;6.38;;;8.60;99.90;;;;;;5075054;28;20063;-88
2022/12/24 05:26:25;;;;;;;33.28;6.25;;;8.70;99.90;;;;;;5096997;28;20066;-88
2022/12/24 05:28:53;;;;;;;41.20;5.50;;;8.70;99.90;;;;;;5061547;28;20162;-88
2022/12/24 05:31:20;;;;;;;37.22;5.80;;;8.70;99.90;;;;;;5098512;28;20082;-88
2022/12/24 05:33:46;;;;;;;26.65;5.75;;;8.70;99.90;;;;;;5072669;28;20105;-86
2022/12/24 05:36:12;;;;;;;36.17;6.03;;;9.60;99.90;;;;;;5060337;28;20501;-88
2022/12/24 05:38:38;;;;;;;40.85;6.10;;;8.70;99.90;;;;;;5078276;28;20044;-88
2022/12/24 05:41:04;;;;;;;34.05;5.60;;;8.70;99.90;;;;;;5065854;28;20101;-88
2022/12/24 05:43:30;;;;;;;37.25;6.40;;;8.70;99.90;;;;;;5083239;28;20138;-87
2022/12/24 05:46:01;;;;;;;30.33;6.03;;;8.70;99.90;;;;;;5060247;28;20346;-88
2022/12/24 05:48:27;;;;;;;38.10;6.68;;;8.60;99.90;;;;;;5093856;28;20135;-88
2022/12/24 05:50:53;;;;;;;31.20;5.05;;;8.70;99.90;;;;;;5076485;28;20110;-87
2022/12/24 05:53:20;;;;;;;37.90;6.10;;;9.30;99.90;;;;;;5094560;28;20063;-88
2022/12/24 05:55:45;;;;;;;36.22;6.32;;;9.80;99.90;;;;;;5076841;28;20048;-87
2022/12/24 05:58:12;;;;;;;37.80;6.05;;;8.70;99.90;;;;;;5093850;28;20048;-87
2022/12/24 06:00:37;;;;;;;39.72;6.60;;;8.70;99.90;;;;;;5058742;28;20052;-87
2022/12/24 06:03:03;;;;;;;42.30;6.47;;;8.70;99.90;;;;;;5076695;28;20036;-87
2022/12/24 06:05:29;;;;;;;34.83;6.35;;;8.60;99.90;;;;;;5059488;28;20416;-87
2022/12/24 06:07:55;;;;;;;35.53;5.60;;;8.60;99.90;;;;;;5074813;28;20055;-87
2022/12/24 06:10:21;;;;;;;40.78;6.13;;;8.70;99.90;;;;;;5059229;28;20083;-87
2022/12/24 06:12:46;;;;;;;41.47;6.03;;;8.70;99.90;;;;;;5059352;28;20050;-87
2022/12/24 06:15:12;;;;;;;33.08;5.35;;;8.60;99.90;;;;;;5062593;28;20093;-87
2022/12/24 06:17:38;;;;;;;41.80;6.88;;;9.90;99.90;;;;;;5057202;28;20059;-87
2022/12/24 06:20:04;;;;;;;35.88;5.60;;;9.30;99.90;;;;;;5046467;28;20151;-87
2022/12/24 06:22:30;;;;;;;31.98;6.75;;;8.70;99.90;;;;;;5051088;28;20056;-87
2022/12/24 06:24:56;;;;;;;36.35;6.25;;;8.70;99.90;;;;;;5054149;28;20048;-87
2022/12/24 06:27:21;;;;;;;40.70;5.63;;;8.70;99.90;;;;;;5092211;28;20101;-86
2022/12/24 06:29:47;;;;;;;33.83;6.18;;;8.70;99.90;;;;;;5080076;28;20048;-87
2022/12/24 06:32:13;;;;;;;40.08;6.07;;;8.70;99.90;;;;;;5081349;27;20089;-87
2022/12/24 06:34:38;;;;;;;39.80;6.65;;;8.70;99.90;;;;;;5107227;28;20076;-88
2022/12/24 06:37:04;;;;;;;43.85;6.78;;;8.70;99.90;;;;;;5098420;27;20411;-88
2022/12/24 06:39:30;;;;;;;40.10;5.80;;;8.80;99.90;;;;;;5098341;27;20097;-87
2022/12/24 06:41:56;;;;;;;34.83;6.43;;;8.70;99.90;;;;;;5100383;28;20549;-87
2022/12/24 06:44:21;;;;;;;45.25;7.32;;;8.70;99.90;;;;;;5100135;28;20051;-88
2022/12/24 06:46:47;;;;;;;29.60;4.93;;;8.80;99.90;;;;;;5108879;28;20054;-87
2022/12/24 06:49:13;;;;;;;44.95;7.18;;;8.80;99.90;;;;;;5112391;28;20488;-87
2022/12/24 06:51:39;;;;;;;38.25;5.75;;;8.80;99.90;;;;;;5079425;28;20079;-87
2022/12/24 06:54:04;;;;;;;33.35;5.68;;;8.80;99.90;;;;;;5094331;27;20066;-88
2022/12/24 06:56:30;;;;;;;42.50;5.85;;;8.80;99.90;;;;;;5116334;27;20050;-87
2022/12/24 06:58:56;;;;;;;43.05;6.35;;;8.80;99.90;;;;;;5114919;27;20105;-87
2022/12/24 07:01:23;;;;;;;36.60;6.03;;;8.80;99.90;;;;;;5104025;28;20399;-87
2022/12/24 07:03:49;;;;;;;39.55;5.70;;;8.80;99.90;;;;;;5111133;27;20416;-86
2022/12/24 07:06:23;;;;;;;35.10;5.57;;;8.80;99.90;;;;;;5098974;27;20419;-88
2022/12/24 07:08:49;;;;;;;39.13;6.28;;;8.90;99.90;;;;;;5115587;28;20111;-88
2022/12/24 07:11:15;;;;;;;29.42;6.32;;;8.80;99.90;;;;;;5097481;28;20055;-87
2022/12/24 07:13:41;;;;;;;37.13;6.43;;;8.80;99.90;;;;;;5124599;27;20184;-88
2022/12/24 07:16:07;;;;;;;41.38;5.80;;;8.90;99.90;;;;;;5097453;28;20093;-89
2022/12/24 07:18:32;;;;;;;37.80;5.75;;;8.80;99.90;;;;;;5112143;28;20487;-87
2022/12/24 07:20:58;;;;;;;36.13;6.45;;;8.80;99.90;;;;;;5082696;28;20051;-88
2022/12/24 07:23:24;;;;;;;37.78;6.50;;;8.90;99.90;;;;;;5096479;28;20052;-87
2022/12/24 07:25:50;;;;;;;35.08;5.70;;;8.90;99.90;;;;;;5088264;28;20043;-87
2022/12/24 07:28:16;;;;;;;38.03;5.45;;;;;;;;;;5082925;28;20051;-88
2022/12/24 07:30:41;;;;;;;35.63;5.50;;;8.80;99.90;;;;;;5105145;28;20109;-86
2022/12/24 07:33:07;;;;;;;41.13;6.15;;;8.80;99.90;;;;;;5106147;28;20055;-87
2022/12/24 07:35:34;;;;;;;40.08;5.95;;;8.70;99.90;;;;;;5111732;28;20052;-85
2022/12/24 07:38:01;;;;;;;35.80;5.93;;;8.70;99.90;;;;;;5112084;28;20130;-85
2022/12/24 07:40:26;;;;;;;38.50;5.78;;;8.60;99.90;;;;;;5111876;28;20066;-85
2022/12/24 07:42:52;;;;;;;41.35;5.85;;;8.50;99.90;;;;;;5109723;28;20055;-85
2022/12/24 07:45:18;;;;;;;35.50;6.50;;;8.60;99.90;;;;;;5111273;28;20442;-84
2022/12/24 07:47:44;;;;;;;40.25;7.30;;;8.50;99.90;;;;;;5095185;28;20051;-85
2022/12/24 07:50:09;;;;;;;36.50;5.95;;;8.50;99.90;;;;;;5112370;28;20055;-86
2022/12/24 07:52:35;;;;;;;34.75;6.82;;;8.60;99.90;;;;;;5111385;28;20056;-85
2022/12/24 07:55:01;;;;;;;35.45;6.53;;;8.60;99.90;;;;;;5089223;28;20051;-86
2022/12/24 07:57:26;;;;;;;36.92;5.57;;;8.60;99.90;;;;;;5111755;28;20407;-85
2022/12/24 07:59:52;;;;;;;32.08;5.25;;;8.60;99.90;;;;;;5111586;28;20055;-85
2022/12/24 08:02:18;;;;;;;41.03;6.93;;;8.50;99.90;;;;;;5079760;28;20131;-84
2022/12/24 08:04:43;;;;;;;33.13;5.38;;;8.60;99.90;;;;;;5079568;28;20047;-85
2022/12/24 08:07:09;;;;;;;33.80;5.80;;;8.60;99.90;;;;;;5094927;28;20126;-85
2022/12/24 08:09:36;;;;;;;33.78;5.55;;;8.60;99.90;;;;;;5109526;28;20487;-85
2022/12/24 08:12:03;;;;;;;31.38;6.00;;;8.60;99.90;;;;;;5110063;28;20058;-87
2022/12/24 08:14:29;;;;;;;39.58;5.80;;;8.60;99.90;;;;;;5075666;28;20072;-85
2022/12/24 08:16:55;;;;;;;32.45;6.18;;;8.70;99.90;;;;;;5104134;28;20048;-84
2022/12/24 08:19:21;;;;;;;28.20;4.90;;;8.80;99.90;;;;;;5092905;28;20056;-85
2022/12/24 08:21:47;;;;;;;40.88;5.85;;;8.70;99.90;;;;;;5095659;28;20057;-84
2022/12/24 08:24:13;;;;;;;37.22;6.40;;;8.70;99.90;;;;;;5094261;28;20189;-84
2022/12/24 08:26:38;;;;;;;36.22;6.18;;;8.70;99.90;;;;;;5076762;28;20059;-84
2022/12/24 08:29:04;;;;;;;37.38;6.78;;;8.70;99.90;;;;;;5094267;28;20404;-85
2022/12/24 08:31:35;;;;;;;37.25;6.35;;;8.80;99.90;;;;;;5109661;28;20476;-84
2022/12/24 08:34:04;;;;;;;34.53;6.10;;;8.80;99.90;;;;;;5110202;28;20107;-85
2022/12/24 08:36:32;;;;;;;41.30;6.65;;;8.80;99.90;;;;;;5097547;28;20101;-85
2022/12/24 08:38:58;;;;;;;36.25;6.78;;;8.80;99.90;;;;;;5099207;28;20050;-85
2022/12/24 08:41:24;;;;;;;36.75;6.45;;;8.90;99.90;;;;;;5110098;28;20052;-85
2022/12/24 08:43:50;;;;;;;41.63;6.25;;;8.90;99.90;;;;;;5098116;28;20050;-85
2022/12/24 08:46:15;;;;;;;36.72;6.75;;;8.90;99.90;;;;;;5109309;28;20058;-85
2022/12/24 08:48:41;;;;;;;35.97;6.65;;;;;;;;;;5116278;27;20484;-84
2022/12/24 08:51:11;;;;;;;35.55;6.10;;;;;;;;;;5114395;28;20051;-85
2022/12/24 08:53:37;;;;;;;43.42;6.60;;;;;;;;;;5114409;28;20039;-85
2022/12/24 08:56:04;;;;;;;43.35;6.60;;;;;;;;;;5115239;28;20054;-85
2022/12/24 08:58:31;;;;;;;35.20;6.85;;;;;;;;;;5126505;27;20038;-86
2022/12/24 09:00:57;;;;;;;38.63;6.53;;;;;;;;;;5099840;27;20048;-86
2022/12/24 09:03:23;;;;;;;36.08;6.82;;;;;;;;;;5117703;27;20047;-86
2022/12/24 09:05:49;;;;;;;36.50;6.82;;;;;;;;;;5135544;27;20047;-85
2022/12/24 09:08:15;;;;;;;35.58;5.82;;;;;;;;;;5134404;27;20157;-86
2022/12/24 09:10:41;;;;;;;39.70;6.47;;;;;;;;;;5134499;27;20089;-85
2022/12/24 09:13:07;;;;;;;28.92;5.35;;;;;;;;;;5103573;28;20048;-88
2022/12/24 09:15:33;;;;;;;38.15;6.50;;;;;;;;;;5060075;28;20056;-86
2022/12/24 09:18:00;;;;;;;30.50;5.90;;;;;;;;;;5092870;28;20083;-87
2022/12/24 09:20:26;;;;;;;37.67;6.22;;;;;;;;;;5095292;28;20048;-87
2022/12/24 09:22:52;;;;;;;31.75;6.05;;;;;;;;;;5097055;28;20078;-86
2022/12/24 09:25:18;;;;;;;35.00;5.30;;;;;;;;;;5097020;28;20431;-86
2022/12/24 09:27:44;;;;;;;39.80;7.60;;;;;;;;;;5116474;28;20051;-87
2022/12/24 09:30:11;;;;;;;42.47;6.95;;;;;;;;;;5095762;28;20087;-87
2022/12/24 09:32:37;;;;;;;31.08;5.63;;;;;;;;;;5116259;27;20055;-86
2022/12/24 09:35:03;;;;;;;40.15;5.63;;;;;;;;;;5118841;27;20051;-86
2022/12/24 09:37:29;;;;;;;30.98;5.20;;;;;;;;;;5121706;27;20051;-85
2022/12/24 09:39:55;;;;;;;30.90;5.65;;;;;;;;;;5119635;27;20043;-85
2022/12/24 09:42:27;;;;;;;32.80;5.57;;;;;;;;;;5134018;27;20080;-85
2022/12/24 09:44:57;;;;;;;31.85;5.25;;;;;;;;;;5134340;27;20499;-87
2022/12/24 09:47:29;;;;;;;31.15;5.53;;;;;;;;;;5115800;27;20122;-84
2022/12/24 09:49:56;;;;;;;30.17;5.57;;;;;;;;;;5117149;27;20054;-84
2022/12/24 09:52:34;;;;;;;31.20;5.40;;;;;;;;;;5117257;27;20047;-84
2022/12/24 09:55:04;;;;;;;31.88;5.72;;;;;;;;;;5116636;27;20473;-85
2022/12/24 09:57:36;;;;;;;30.23;5.45;;;;;;;;;;5116753;27;20043;-86
2022/12/24 10:00:03;;;;;;;32.22;5.63;;;;;;;;;;5115336;27;20051;-87
2022/12/24 10:02:31;;;;;;;28.67;5.50;;;;;;;;;;5074698;28;20048;-84
2022/12/24 10:04:57;;;;;;;36.65;5.90;;;;;;;;;;5059281;28;20090;-86
2022/12/24 10:07:42;;;;;;;32.80;5.82;;;;;;;;;;5059698;28;20058;-84
2022/12/24 10:10:28;;;;;;;35.92;5.75;;;;;;;;;;5058696;28;20060;-84
2022/12/24 10:13:06;;;;;;;42.05;6.18;;;;;;;;;;5065286;27;20060;-86
2022/12/24 10:15:37;;;;;;;34.22;5.57;;;;;;;;;;5112825;28;20100;-85
2022/12/24 10:18:09;;;;;;;31.67;5.40;;;;;;;;;;5111539;28;20063;-84
2022/12/24 10:20:52;;;;;;;36.58;5.72;;;;;;;;;;5095418;28;20094;-85
2022/12/24 10:23:18;;;;;;;35.92;6.72;;;;;;;;;;5092504;27;20058;-85
2022/12/24 10:25:49;;;;;;;35.60;6.50;;;;;;;;;;5116032;27;20051;-85
2022/12/24 10:28:17;;;;;;;30.48;5.93;;;;;;;;;;5133079;27;20442;-85
2022/12/24 10:30:47;;;;;;;37.67;6.43;;;;;;;;;;5115895;27;20399;-85
2022/12/24 10:33:28;;;;;;;30.38;5.60;;;;;;;;;;5133479;27;20051;-86
2022/12/24 10:35:56;;;;;;;27.02;5.45;;;;;;;;;;5116984;27;20051;-86
2022/12/24 10:38:22;;;;;;;35.45;5.72;;;;;;;;;;5115404;27;20419;-86
2022/12/24 10:40:50;;;;;;;30.73;5.88;;;;;;;;;;5116534;27;20043;-86
2022/12/24 10:43:21;;;;;;;39.38;6.53;;;;;;;;;;5125432;27;20071;-86
2022/12/24 10:45:49;;;;;;;30.73;5.57;;;;;;;;;;5095263;28;20043;-86
2022/12/24 10:48:19;;;;;;;29.77;5.55;;;;;;;;;;5112325;28;20600;-86
2022/12/24 10:50:52;;;;;;;28.75;5.00;;;;;;;;;;5112654;28;20070;-86
2022/12/24 10:53:22;;;;;;;29.77;5.63;;;;;;;;;;5094579;28;20070;-86
2022/12/24 10:55:50;;;;;;;31.73;6.20;;;;;;;;;;5092344;28;20138;-86
2022/12/24 10:58:18;;;;;;;28.10;5.28;;;;;;;;;;5112162;28;20079;-86
2022/12/24 11:00:50;;;;;;;30.85;5.72;;;;;;;;;;5095437;28;20563;-86
2022/12/24 11:03:31;;;;;;;27.83;5.43;;;;;;;;;;5112377;28;20051;-85
2022/12/24 11:06:03;;;;;;;32.55;6.22;;;;;;;;;;5096109;28;20385;-89
2022/12/24 11:08:29;;;;;;;36.95;6.90;;;;;;;;;;5112630;28;20144;-87
2022/12/24 11:10:57;;;;;;;26.40;5.00;;;;;;;;;;5095264;28;20138;-86
2022/12/24 11:13:34;;;;;;;29.85;5.45;;;;;;;;;;5093428;28;20079;-87
2022/12/24 11:16:06;;;;;;;24.73;5.25;;;;;;;;;;5094863;28;20448;-87
2022/12/24 11:18:34;;;;;;;31.90;5.50;;;;;;;;;;5083321;28;20457;-87
2022/12/24 11:21:00;;;;;;;32.65;5.60;;;;;;;;;;5102699;28;20181;-85
2022/12/24 11:23:28;;;;;;;34.50;5.32;;;;;;;;;;5074334;28;20044;-85
2022/12/24 11:25:55;;;;;;;31.52;5.03;;;;;;;;;;5092657;28;20052;-83
2022/12/24 11:28:21;;;;;;;33.13;5.88;;;;;;;;;;5057806;28;20059;-84
2022/12/24 11:30:58;;;;;;;22.08;4.85;;;;;;;;;;5092033;28;20047;-86
2022/12/24 11:33:24;;;;;;;28.77;5.53;;;;;;;;;;5081148;28;20055;-90
2022/12/24 11:35:53;;;;;;;26.58;5.60;;;;;;;;;;5077255;28;20050;-88
2022/12/24 11:38:21;;;;;;;25.58;5.32;;;;;;;;;;5075473;28;20054;-88
2022/12/24 11:40:48;;;;;;;20.60;4.32;;;;;;;;;;5092614;28;20044;-87
2022/12/24 11:43:18;;;;;;;27.10;5.78;;;;;;;;;;5075923;28;20058;-89
2022/12/24 11:45:55;;;;;;;24.00;5.07;;;;;;;;;;5093417;28;20074;-88
2022/12/24 11:48:24;;;;;;;23.40;4.50;;;;;;;;;;5076564;28;20142;-88
2022/12/24 11:50:55;;;;;;;22.88;4.10;;;;;;;;;;5101745;28;20101;-90
2022/12/24 11:53:25;;;;;;;25.20;4.88;;;;;;;;;;5109951;28;20052;-88
2022/12/24 11:56:02;;;;;;;23.85;4.38;;;;;;;;;;5089579;28;20045;-89
2022/12/24 11:58:37;;;;;;;25.10;5.53;;;;;;;;;;5128481;27;20389;-84
2022/12/24 12:01:03;;;;;;;24.52;4.72;;;;;;;;;;5114645;27;20051;-88
2022/12/24 12:03:31;;;;;;;18.77;4.05;;;;;;;;;;5117784;27;20100;-79
2022/12/24 12:06:01;;;;;;;22.52;4.28;;;8.90;99.90;;;;;;5137481;27;20046;-79
2022/12/24 12:08:29;;;;;;;26.20;5.13;;;10.50;99.90;;;;;;5120868;27;20087;-80
2022/12/24 12:10:58;;;;;;;23.50;4.93;;;10.40;99.90;;;;;;5115447;28;20055;-81
2022/12/24 12:13:32;;;;;;;29.27;4.72;;;10.50;99.90;;;;;;5108506;28;20407;-81
2022/12/24 12:16:19;;;;;;;26.45;4.97;;;10.40;99.90;;;;;;5098127;28;20111;-81
2022/12/24 12:19:05;;;;;;;24.05;4.32;;;10.40;99.90;;;;;;5112196;28;20400;-80
2022/12/24 12:21:45;;;;;;;22.10;4.20;;;10.40;99.90;;;;;;5061266;28;20052;-80
2022/12/24 12:24:21;;;;;;;22.33;4.50;;;10.40;99.90;;;;;;5095909;28;20119;-77
2022/12/24 12:26:48;;;;;;;;;;;10.40;99.90;;;;;;5098323;28;20044;-80
2022/12/24 12:29:35;;;;;;;19.38;4.20;;;10.40;99.90;;;;;;5115813;28;20006;-81
2022/12/24 12:32:09;;;;;;;22.35;4.70;;;10.40;99.90;;;;;;5114905;28;20044;-81
2022/12/24 12:34:49;;;;;;;24.23;4.40;;;10.40;99.90;;;;;;5116003;28;20094;-79
2022/12/24 12:37:27;;;;;;;23.58;4.10;;;10.30;99.90;;;;;;5112600;28;20147;-76
2022/12/24 12:39:54;;;;;;;24.27;4.45;;;10.40;99.90;;;;;;5073937;28;20052;-76
2022/12/24 12:42:33;;;;;;;21.70;3.38;;;10.40;99.90;;;;;;5057432;28;20049;-76
2022/12/24 12:45:36;;;;;;;16.85;3.83;;;10.50;99.90;;;;;;5057188;28;20211;-74
2022/12/24 12:48:14;;;;;;;21.92;4.05;;;10.50;99.90;;;;;;5072007;28;20129;-74
2022/12/24 12:50:54;;;;;;;19.75;3.80;;;10.50;99.90;;;;;;5054390;28;20420;-74
2022/12/24 12:53:37;;;;;;;21.33;4.38;;;10.50;99.90;;;;;;5073474;28;20041;-74
2022/12/24 12:56:22;;;;;;;24.77;4.57;;;10.60;99.90;;;;;;5070311;28;20052;-73
2022/12/24 12:58:53;;;;;;;22.80;4.22;;;10.70;99.90;;;;;;5055296;28;20131;-72
2022/12/24 13:01:24;;;;;;;25.48;4.60;;;10.80;99.90;;;;;;5089872;28;20052;-72
2022/12/24 13:03:53;;;;;;;25.55;4.45;;;10.70;99.90;;;;;;5057135;28;20066;-73
2022/12/24 13:06:45;;;;;;;19.88;3.65;;;10.70;99.90;;;;;;5072187;28;20067;-72
2022/12/24 13:09:23;;;;;;;24.17;4.03;;;10.70;99.90;;;;;;5055057;28;20048;-73
2022/12/24 13:12:05;;;;;;;21.27;4.47;;;10.70;99.90;;;;;;5070326;28;20061;-72
2022/12/24 13:14:31;;;;;;;26.15;4.35;;;10.70;99.90;;;;;;5088526;28;20114;-73
2022/12/24 13:17:20;;;;;;;20.10;4.55;;;10.60;99.90;;;;;;5091709;28;20056;-73
2022/12/24 13:20:08;;;;;;;31.42;5.10;;;10.60;99.90;;;;;;5073666;28;20123;-72
2022/12/24 13:22:34;;;;;;;25.20;3.92;;;10.70;99.90;;;;;;5072778;28;20452;-72
2022/12/24 13:25:00;;;;;;;17.00;3.90;;;10.60;99.90;;;;;;5088252;28;20169;-72
2022/12/24 13:27:31;;;;;;;25.30;4.47;;;10.60;99.90;;;;;;5058023;28;20436;-72